sensor_id;sensor_type;location;lat;lon;timestamp;P1;durP1;ratioP1;P2;durP2;ratioP2
19942;SDS011;10133;50.956;17.276;2023-03-15T00:01:59;11.37;;;4.10;;
19942;SDS011;10133;50.956;17.276;2023-03-15T00:04:27;6.67;;;3.70;;
19942;SDS011;10133;50.956;17.276;2023-03-15T00:06:54;6.93;;;3.60;;
19942;SDS011;10133;50.956;17.276;2023-03-15T00:09:21;7.27;;;3.77;;
19942;SDS011;10133;50.956;17.276;2023-03-15T00:11:50;7.77;;;3.50;;
19942;SDS011;10133;50.956;17.276;2023-03-15T00:17:15;8.50;;;3.40;;
19942;SDS011;10133;50.956;17.276;2023-03-15T00:19:42;5.87;;;3.20;;
19942;SDS011;10133;50.956;17.276;2023-03-15T00:22:10;7.63;;;3.10;;
19942;SDS011;10133;50.956;17.276;2023-03-15T00:24:36;7.57;;;3.30;;
19942;SDS011;10133;50.956;17.276;2023-03-15T00:27:03;8.20;;;3.23;;
19942;SDS011;10133;50.956;17.276;2023-03-15T00:29:31;7.73;;;3.10;;
19942;SDS011;10133;50.956;17.276;2023-03-15T00:31:58;9.43;;;3.67;;
19942;SDS011;10133;50.956;17.276;2023-03-15T00:34:25;10.33;;;3.50;;
19942;SDS011;10133;50.956;17.276;2023-03-15T00:36:52;7.00;;;3.13;;
19942;SDS011;10133;50.956;17.276;2023-03-15T00:39:19;9.77;;;3.30;;
19942;SDS011;10133;50.956;17.276;2023-03-15T00:41:46;5.17;;;3.27;;
19942;SDS011;10133;50.956;17.276;2023-03-15T00:44:13;7.07;;;3.20;;
19942;SDS011;10133;50.956;17.276;2023-03-15T00:46:40;6.97;;;3.37;;
19942;SDS011;10133;50.956;17.276;2023-03-15T00:49:07;10.43;;;3.63;;
19942;SDS011;10133;50.956;17.276;2023-03-15T00:51:34;8.83;;;2.80;;
19942;SDS011;10133;50.956;17.276;2023-03-15T00:54:02;6.53;;;2.70;;
19942;SDS011;10133;50.956;17.276;2023-03-15T00:56:29;5.97;;;3.27;;
19942;SDS011;10133;50.956;17.276;2023-03-15T00:58:57;11.20;;;3.07;;
19942;SDS011;10133;50.956;17.276;2023-03-15T01:01:25;6.13;;;3.10;;
19942;SDS011;10133;50.956;17.276;2023-03-15T01:03:54;6.77;;;3.10;;
19942;SDS011;10133;50.956;17.276;2023-03-15T01:06:22;5.83;;;2.93;;
19942;SDS011;10133;50.956;17.276;2023-03-15T01:08:50;5.57;;;2.60;;
19942;SDS011;10133;50.956;17.276;2023-03-15T01:11:19;8.70;;;2.80;;
19942;SDS011;10133;50.956;17.276;2023-03-15T01:13:50;8.37;;;2.43;;
19942;SDS011;10133;50.956;17.276;2023-03-15T01:16:18;9.40;;;2.63;;
19942;SDS011;10133;50.956;17.276;2023-03-15T01:18:45;8.67;;;2.87;;
19942;SDS011;10133;50.956;17.276;2023-03-15T01:21:12;7.47;;;2.60;;
19942;SDS011;10133;50.956;17.276;2023-03-15T01:23:40;6.33;;;2.20;;
19942;SDS011;10133;50.956;17.276;2023-03-15T01:26:09;6.90;;;2.20;;
19942;SDS011;10133;50.956;17.276;2023-03-15T01:28:37;8.07;;;2.23;;
19942;SDS011;10133;50.956;17.276;2023-03-15T01:31:04;7.50;;;2.40;;
19942;SDS011;10133;50.956;17.276;2023-03-15T01:33:32;7.63;;;2.10;;
19942;SDS011;10133;50.956;17.276;2023-03-15T01:35:59;10.50;;;2.53;;
19942;SDS011;10133;50.956;17.276;2023-03-15T01:38:28;7.90;;;2.50;;
19942;SDS011;10133;50.956;17.276;2023-03-15T01:40:55;8.83;;;2.63;;
19942;SDS011;10133;50.956;17.276;2023-03-15T01:43:23;6.60;;;2.10;;
19942;SDS011;10133;50.956;17.276;2023-03-15T01:50:54;9.33;;;1.83;;
19942;SDS011;10133;50.956;17.276;2023-03-15T01:53:23;10.20;;;2.33;;
19942;SDS011;10133;50.956;17.276;2023-03-15T01:55:52;10.27;;;2.10;;
19942;SDS011;10133;50.956;17.276;2023-03-15T01:58:20;7.23;;;1.70;;
19942;SDS011;10133;50.956;17.276;2023-03-15T02:00:49;4.97;;;2.00;;
19942;SDS011;10133;50.956;17.276;2023-03-15T02:03:22;10.73;;;2.30;;
19942;SDS011;10133;50.956;17.276;2023-03-15T02:05:56;7.07;;;1.70;;
19942;SDS011;10133;50.956;17.276;2023-03-15T02:08:25;6.63;;;1.90;;
19942;SDS011;10133;50.956;17.276;2023-03-15T02:10:58;12.93;;;2.10;;
19942;SDS011;10133;50.956;17.276;2023-03-15T02:13:28;10.57;;;1.90;;
19942;SDS011;10133;50.956;17.276;2023-03-15T02:15:56;5.40;;;1.60;;
19942;SDS011;10133;50.956;17.276;2023-03-15T02:18:24;8.37;;;1.60;;
19942;SDS011;10133;50.956;17.276;2023-03-15T02:24:10;7.23;;;1.73;;
19942;SDS011;10133;50.956;17.276;2023-03-15T02:26:44;8.50;;;1.67;;
19942;SDS011;10133;50.956;17.276;2023-03-15T02:29:15;6.20;;;1.20;;
19942;SDS011;10133;50.956;17.276;2023-03-15T02:31:42;11.50;;;2.10;;
19942;SDS011;10133;50.956;17.276;2023-03-15T02:34:09;8.00;;;1.57;;
19942;SDS011;10133;50.956;17.276;2023-03-15T02:36:36;5.60;;;1.50;;
19942;SDS011;10133;50.956;17.276;2023-03-15T02:39:13;6.93;;;1.27;;
19942;SDS011;10133;50.956;17.276;2023-03-15T02:44:38;8.17;;;1.60;;
19942;SDS011;10133;50.956;17.276;2023-03-15T02:47:13;9.03;;;1.37;;
19942;SDS011;10133;50.956;17.276;2023-03-15T02:49:45;13.93;;;3.57;;
19942;SDS011;10133;50.956;17.276;2023-03-15T02:52:17;7.17;;;1.37;;
19942;SDS011;10133;50.956;17.276;2023-03-15T02:54:45;10.63;;;1.30;;
19942;SDS011;10133;50.956;17.276;2023-03-15T02:57:12;6.23;;;1.40;;
19942;SDS011;10133;50.956;17.276;2023-03-15T02:59:41;5.63;;;1.40;;
19942;SDS011;10133;50.956;17.276;2023-03-15T03:02:08;6.33;;;1.20;;
19942;SDS011;10133;50.956;17.276;2023-03-15T03:04:37;4.23;;;1.30;;
19942;SDS011;10133;50.956;17.276;2023-03-15T03:07:04;6.37;;;1.50;;
19942;SDS011;10133;50.956;17.276;2023-03-15T03:09:31;7.27;;;1.43;;
19942;SDS011;10133;50.956;17.276;2023-03-15T03:11:58;5.50;;;1.20;;
19942;SDS011;10133;50.956;17.276;2023-03-15T03:14:25;12.13;;;1.57;;
19942;SDS011;10133;50.956;17.276;2023-03-15T03:16:52;5.40;;;1.10;;
19942;SDS011;10133;50.956;17.276;2023-03-15T03:19:19;6.37;;;1.13;;
19942;SDS011;10133;50.956;17.276;2023-03-15T03:21:51;6.73;;;1.40;;
19942;SDS011;10133;50.956;17.276;2023-03-15T03:24:19;6.97;;;1.40;;
19942;SDS011;10133;50.956;17.276;2023-03-15T03:26:46;5.33;;;1.30;;
19942;SDS011;10133;50.956;17.276;2023-03-15T03:29:13;8.97;;;1.70;;
19942;SDS011;10133;50.956;17.276;2023-03-15T03:31:43;13.57;;;1.47;;
19942;SDS011;10133;50.956;17.276;2023-03-15T03:34:10;10.63;;;1.33;;
19942;SDS011;10133;50.956;17.276;2023-03-15T03:36:43;7.97;;;1.50;;
19942;SDS011;10133;50.956;17.276;2023-03-15T03:39:10;7.40;;;1.40;;
19942;SDS011;10133;50.956;17.276;2023-03-15T03:41:37;3.17;;;1.10;;
19942;SDS011;10133;50.956;17.276;2023-03-15T03:44:04;7.30;;;1.30;;
19942;SDS011;10133;50.956;17.276;2023-03-15T03:46:31;5.70;;;1.50;;
19942;SDS011;10133;50.956;17.276;2023-03-15T03:48:58;6.63;;;1.30;;
19942;SDS011;10133;50.956;17.276;2023-03-15T03:51:25;5.23;;;1.20;;
19942;SDS011;10133;50.956;17.276;2023-03-15T03:53:52;5.10;;;1.13;;
19942;SDS011;10133;50.956;17.276;2023-03-15T03:56:19;8.30;;;1.67;;
19942;SDS011;10133;50.956;17.276;2023-03-15T03:58:46;6.37;;;1.10;;
19942;SDS011;10133;50.956;17.276;2023-03-15T04:01:13;11.53;;;1.70;;
19942;SDS011;10133;50.956;17.276;2023-03-15T04:03:39;9.93;;;1.30;;
19942;SDS011;10133;50.956;17.276;2023-03-15T04:06:06;7.23;;;1.17;;
19942;SDS011;10133;50.956;17.276;2023-03-15T04:08:33;6.83;;;1.77;;
19942;SDS011;10133;50.956;17.276;2023-03-15T04:11:00;8.33;;;2.10;;
19942;SDS011;10133;50.956;17.276;2023-03-15T04:13:29;3.93;;;1.30;;
19942;SDS011;10133;50.956;17.276;2023-03-15T04:15:56;8.53;;;1.87;;
19942;SDS011;10133;50.956;17.276;2023-03-15T04:18:23;7.67;;;1.50;;
19942;SDS011;10133;50.956;17.276;2023-03-15T04:20:50;5.87;;;1.23;;
19942;SDS011;10133;50.956;17.276;2023-03-15T04:23:20;10.53;;;1.40;;
19942;SDS011;10133;50.956;17.276;2023-03-15T04:25:49;5.47;;;1.30;;
19942;SDS011;10133;50.956;17.276;2023-03-15T04:28:18;6.57;;;1.20;;
19942;SDS011;10133;50.956;17.276;2023-03-15T04:30:46;5.90;;;1.10;;
19942;SDS011;10133;50.956;17.276;2023-03-15T04:33:14;10.57;;;1.63;;
19942;SDS011;10133;50.956;17.276;2023-03-15T04:35:41;6.40;;;1.30;;
19942;SDS011;10133;50.956;17.276;2023-03-15T04:38:08;5.63;;;1.40;;
19942;SDS011;10133;50.956;17.276;2023-03-15T04:40:35;5.27;;;1.20;;
19942;SDS011;10133;50.956;17.276;2023-03-15T04:43:03;6.23;;;1.77;;
19942;SDS011;10133;50.956;17.276;2023-03-15T04:45:31;6.37;;;1.27;;
19942;SDS011;10133;50.956;17.276;2023-03-15T04:47:58;6.93;;;1.60;;
19942;SDS011;10133;50.956;17.276;2023-03-15T04:50:27;12.40;;;1.77;;
19942;SDS011;10133;50.956;17.276;2023-03-15T04:52:58;6.13;;;1.20;;
19942;SDS011;10133;50.956;17.276;2023-03-15T04:55:26;8.90;;;1.80;;
19942;SDS011;10133;50.956;17.276;2023-03-15T04:57:52;8.63;;;2.10;;
19942;SDS011;10133;50.956;17.276;2023-03-15T05:00:20;11.43;;;2.03;;
19942;SDS011;10133;50.956;17.276;2023-03-15T05:02:47;6.70;;;1.40;;
19942;SDS011;10133;50.956;17.276;2023-03-15T05:05:21;9.97;;;1.70;;
19942;SDS011;10133;50.956;17.276;2023-03-15T05:07:49;5.07;;;1.30;;
19942;SDS011;10133;50.956;17.276;2023-03-15T05:10:16;6.33;;;1.57;;
19942;SDS011;10133;50.956;17.276;2023-03-15T05:12:44;12.67;;;1.70;;
19942;SDS011;10133;50.956;17.276;2023-03-15T05:15:11;3.87;;;1.07;;
19942;SDS011;10133;50.956;17.276;2023-03-15T05:17:38;11.77;;;1.30;;
19942;SDS011;10133;50.956;17.276;2023-03-15T05:20:05;7.27;;;1.10;;
19942;SDS011;10133;50.956;17.276;2023-03-15T05:22:38;5.63;;;1.20;;
19942;SDS011;10133;50.956;17.276;2023-03-15T05:25:06;9.67;;;1.57;;
19942;SDS011;10133;50.956;17.276;2023-03-15T05:27:35;6.40;;;1.57;;
19942;SDS011;10133;50.956;17.276;2023-03-15T05:30:03;8.97;;;1.70;;
19942;SDS011;10133;50.956;17.276;2023-03-15T05:32:31;8.40;;;1.70;;
19942;SDS011;10133;50.956;17.276;2023-03-15T05:35:00;10.87;;;1.53;;
19942;SDS011;10133;50.956;17.276;2023-03-15T05:37:27;5.47;;;1.17;;
19942;SDS011;10133;50.956;17.276;2023-03-15T05:39:55;13.53;;;1.50;;
19942;SDS011;10133;50.956;17.276;2023-03-15T05:42:22;11.40;;;1.87;;
19942;SDS011;10133;50.956;17.276;2023-03-15T05:44:54;5.40;;;1.40;;
19942;SDS011;10133;50.956;17.276;2023-03-15T05:47:22;8.13;;;1.37;;
19942;SDS011;10133;50.956;17.276;2023-03-15T05:49:49;8.20;;;1.40;;
19942;SDS011;10133;50.956;17.276;2023-03-15T05:52:17;12.13;;;1.97;;
19942;SDS011;10133;50.956;17.276;2023-03-15T05:54:44;6.30;;;1.70;;
19942;SDS011;10133;50.956;17.276;2023-03-15T05:57:11;6.73;;;1.73;;
19942;SDS011;10133;50.956;17.276;2023-03-15T05:59:38;7.43;;;1.67;;
19942;SDS011;10133;50.956;17.276;2023-03-15T06:02:05;12.83;;;2.17;;
19942;SDS011;10133;50.956;17.276;2023-03-15T06:04:33;8.10;;;1.90;;
19942;SDS011;10133;50.956;17.276;2023-03-15T06:07:00;5.00;;;1.60;;
19942;SDS011;10133;50.956;17.276;2023-03-15T06:09:27;9.43;;;1.73;;
19942;SDS011;10133;50.956;17.276;2023-03-15T06:11:54;8.87;;;2.63;;
19942;SDS011;10133;50.956;17.276;2023-03-15T06:14:21;7.57;;;1.93;;
19942;SDS011;10133;50.956;17.276;2023-03-15T06:16:48;11.40;;;1.60;;
19942;SDS011;10133;50.956;17.276;2023-03-15T06:19:15;10.20;;;1.80;;
19942;SDS011;10133;50.956;17.276;2023-03-15T06:21:42;8.87;;;1.93;;
19942;SDS011;10133;50.956;17.276;2023-03-15T06:24:09;14.40;;;1.87;;
19942;SDS011;10133;50.956;17.276;2023-03-15T06:26:36;8.77;;;1.50;;
19942;SDS011;10133;50.956;17.276;2023-03-15T06:29:03;8.80;;;1.80;;
19942;SDS011;10133;50.956;17.276;2023-03-15T06:31:30;10.70;;;1.30;;
19942;SDS011;10133;50.956;17.276;2023-03-15T06:33:57;7.87;;;1.77;;
19942;SDS011;10133;50.956;17.276;2023-03-15T06:36:24;10.60;;;1.77;;
19942;SDS011;10133;50.956;17.276;2023-03-15T06:38:51;9.10;;;1.60;;
19942;SDS011;10133;50.956;17.276;2023-03-15T06:41:19;10.50;;;1.97;;
19942;SDS011;10133;50.956;17.276;2023-03-15T06:43:46;5.47;;;1.53;;
19942;SDS011;10133;50.956;17.276;2023-03-15T06:46:13;6.53;;;1.57;;
19942;SDS011;10133;50.956;17.276;2023-03-15T06:48:40;7.90;;;1.63;;
19942;SDS011;10133;50.956;17.276;2023-03-15T06:51:07;7.50;;;1.73;;
19942;SDS011;10133;50.956;17.276;2023-03-15T06:53:34;8.20;;;1.90;;
19942;SDS011;10133;50.956;17.276;2023-03-15T06:56:01;6.60;;;1.50;;
19942;SDS011;10133;50.956;17.276;2023-03-15T06:58:28;12.27;;;1.60;;
19942;SDS011;10133;50.956;17.276;2023-03-15T07:00:55;10.20;;;2.00;;
19942;SDS011;10133;50.956;17.276;2023-03-15T07:03:22;9.27;;;1.70;;
19942;SDS011;10133;50.956;17.276;2023-03-15T07:05:49;4.40;;;1.40;;
19942;SDS011;10133;50.956;17.276;2023-03-15T07:08:19;8.90;;;1.53;;
19942;SDS011;10133;50.956;17.276;2023-03-15T07:10:47;8.17;;;1.53;;
19942;SDS011;10133;50.956;17.276;2023-03-15T07:13:16;7.37;;;1.27;;
19942;SDS011;10133;50.956;17.276;2023-03-15T07:15:44;4.97;;;1.40;;
19942;SDS011;10133;50.956;17.276;2023-03-15T07:18:13;6.63;;;1.60;;
19942;SDS011;10133;50.956;17.276;2023-03-15T07:20:40;8.43;;;1.50;;
19942;SDS011;10133;50.956;17.276;2023-03-15T07:23:07;10.30;;;1.87;;
19942;SDS011;10133;50.956;17.276;2023-03-15T07:25:34;8.77;;;1.43;;
19942;SDS011;10133;50.956;17.276;2023-03-15T07:28:17;7.03;;;1.43;;
19942;SDS011;10133;50.956;17.276;2023-03-15T07:30:57;10.90;;;1.73;;
19942;SDS011;10133;50.956;17.276;2023-03-15T07:33:26;10.83;;;1.60;;
19942;SDS011;10133;50.956;17.276;2023-03-15T07:35:54;9.90;;;1.70;;
19942;SDS011;10133;50.956;17.276;2023-03-15T07:38:22;10.53;;;1.83;;
19942;SDS011;10133;50.956;17.276;2023-03-15T07:40:50;8.63;;;1.87;;
19942;SDS011;10133;50.956;17.276;2023-03-15T07:43:17;8.80;;;2.10;;
19942;SDS011;10133;50.956;17.276;2023-03-15T07:45:45;6.20;;;1.57;;
19942;SDS011;10133;50.956;17.276;2023-03-15T07:48:12;5.40;;;1.77;;
19942;SDS011;10133;50.956;17.276;2023-03-15T07:50:39;5.57;;;1.30;;
19942;SDS011;10133;50.956;17.276;2023-03-15T07:53:06;5.33;;;1.30;;
19942;SDS011;10133;50.956;17.276;2023-03-15T07:55:33;9.57;;;1.40;;
19942;SDS011;10133;50.956;17.276;2023-03-15T07:58:00;8.67;;;1.80;;
19942;SDS011;10133;50.956;17.276;2023-03-15T08:00:28;6.43;;;1.70;;
19942;SDS011;10133;50.956;17.276;2023-03-15T08:02:55;5.63;;;1.60;;
19942;SDS011;10133;50.956;17.276;2023-03-15T08:05:23;4.23;;;1.40;;
19942;SDS011;10133;50.956;17.276;2023-03-15T08:07:54;7.37;;;1.53;;
19942;SDS011;10133;50.956;17.276;2023-03-15T08:10:21;7.60;;;1.60;;
19942;SDS011;10133;50.956;17.276;2023-03-15T08:12:48;9.85;;;1.90;;
19942;SDS011;10133;50.956;17.276;2023-03-15T08:15:16;9.38;;;1.85;;
19942;SDS011;10133;50.956;17.276;2023-03-15T08:17:43;5.78;;;2.25;;
19942;SDS011;10133;50.956;17.276;2023-03-15T08:20:10;9.67;;;1.97;;
19942;SDS011;10133;50.956;17.276;2023-03-15T08:22:40;5.83;;;1.83;;
19942;SDS011;10133;50.956;17.276;2023-03-15T08:25:11;8.63;;;1.57;;
19942;SDS011;10133;50.956;17.276;2023-03-15T08:27:40;7.43;;;1.93;;
19942;SDS011;10133;50.956;17.276;2023-03-15T08:30:08;10.13;;;1.70;;
19942;SDS011;10133;50.956;17.276;2023-03-15T08:32:41;7.03;;;1.47;;
19942;SDS011;10133;50.956;17.276;2023-03-15T08:35:10;7.70;;;2.03;;
19942;SDS011;10133;50.956;17.276;2023-03-15T08:37:41;12.33;;;2.30;;
19942;SDS011;10133;50.956;17.276;2023-03-15T08:40:13;7.37;;;1.40;;
19942;SDS011;10133;50.956;17.276;2023-03-15T08:42:41;7.97;;;1.97;;
19942;SDS011;10133;50.956;17.276;2023-03-15T08:45:08;9.17;;;1.80;;
19942;SDS011;10133;50.956;17.276;2023-03-15T08:47:36;10.97;;;1.60;;
19942;SDS011;10133;50.956;17.276;2023-03-15T08:50:05;9.13;;;1.50;;
19942;SDS011;10133;50.956;17.276;2023-03-15T08:52:37;9.23;;;1.73;;
19942;SDS011;10133;50.956;17.276;2023-03-15T08:55:05;5.13;;;1.23;;
19942;SDS011;10133;50.956;17.276;2023-03-15T08:57:33;7.13;;;1.53;;
19942;SDS011;10133;50.956;17.276;2023-03-15T09:00:00;8.40;;;1.27;;
19942;SDS011;10133;50.956;17.276;2023-03-15T09:02:33;9.23;;;1.60;;
19942;SDS011;10133;50.956;17.276;2023-03-15T09:05:02;12.33;;;1.57;;
19942;SDS011;10133;50.956;17.276;2023-03-15T09:07:32;10.43;;;2.27;;
19942;SDS011;10133;50.956;17.276;2023-03-15T09:09:59;6.10;;;1.90;;
19942;SDS011;10133;50.956;17.276;2023-03-15T09:12:30;11.83;;;1.73;;
19942;SDS011;10133;50.956;17.276;2023-03-15T09:14:56;6.83;;;1.53;;
19942;SDS011;10133;50.956;17.276;2023-03-15T09:17:23;7.67;;;1.63;;
19942;SDS011;10133;50.956;17.276;2023-03-15T09:19:50;7.97;;;1.37;;
19942;SDS011;10133;50.956;17.276;2023-03-15T09:22:17;9.07;;;1.90;;
19942;SDS011;10133;50.956;17.276;2023-03-15T09:25:03;10.57;;;1.67;;
19942;SDS011;10133;50.956;17.276;2023-03-15T09:27:30;9.27;;;1.87;;
19942;SDS011;10133;50.956;17.276;2023-03-15T09:29:58;12.50;;;2.13;;
19942;SDS011;10133;50.956;17.276;2023-03-15T09:32:25;9.80;;;1.90;;
19942;SDS011;10133;50.956;17.276;2023-03-15T09:34:53;13.17;;;3.00;;
19942;SDS011;10133;50.956;17.276;2023-03-15T09:37:20;15.33;;;3.80;;
19942;SDS011;10133;50.956;17.276;2023-03-15T09:39:47;9.70;;;2.70;;
19942;SDS011;10133;50.956;17.276;2023-03-15T09:45:06;10.87;;;1.97;;
19942;SDS011;10133;50.956;17.276;2023-03-15T09:47:47;8.40;;;2.00;;
19942;SDS011;10133;50.956;17.276;2023-03-15T09:50:51;8.37;;;1.50;;
19942;SDS011;10133;50.956;17.276;2023-03-15T09:55:54;8.07;;;1.77;;
19942;SDS011;10133;50.956;17.276;2023-03-15T09:58:23;4.47;;;1.47;;
19942;SDS011;10133;50.956;17.276;2023-03-15T10:01:04;7.77;;;1.53;;
19942;SDS011;10133;50.956;17.276;2023-03-15T10:06:16;11.07;;;1.63;;
19942;SDS011;10133;50.956;17.276;2023-03-15T10:08:45;5.63;;;1.60;;
19942;SDS011;10133;50.956;17.276;2023-03-15T10:11:21;6.60;;;2.37;;
19942;SDS011;10133;50.956;17.276;2023-03-15T10:14:04;9.57;;;2.47;;
19942;SDS011;10133;50.956;17.276;2023-03-15T10:16:47;6.83;;;1.70;;
19942;SDS011;10133;50.956;17.276;2023-03-15T10:27:49;4.67;;;1.40;;
19942;SDS011;10133;50.956;17.276;2023-03-15T10:30:19;7.77;;;1.67;;
19942;SDS011;10133;50.956;17.276;2023-03-15T10:33:22;6.07;;;1.53;;
19942;SDS011;10133;50.956;17.276;2023-03-15T10:35:59;10.93;;;1.80;;
19942;SDS011;10133;50.956;17.276;2023-03-15T10:38:37;7.60;;;1.87;;
19942;SDS011;10133;50.956;17.276;2023-03-15T10:41:05;5.77;;;1.70;;
19942;SDS011;10133;50.956;17.276;2023-03-15T10:43:34;7.80;;;1.57;;
19942;SDS011;10133;50.956;17.276;2023-03-15T10:48:38;8.10;;;2.27;;
19942;SDS011;10133;50.956;17.276;2023-03-15T10:51:29;6.83;;;1.93;;
19942;SDS011;10133;50.956;17.276;2023-03-15T10:54:05;5.50;;;2.00;;
19942;SDS011;10133;50.956;17.276;2023-03-15T10:56:48;7.23;;;2.17;;
19942;SDS011;10133;50.956;17.276;2023-03-15T10:59:27;6.83;;;1.63;;
19942;SDS011;10133;50.956;17.276;2023-03-15T11:05:20;7.73;;;1.60;;
19942;SDS011;10133;50.956;17.276;2023-03-15T11:07:52;5.70;;;1.87;;
19942;SDS011;10133;50.956;17.276;2023-03-15T11:10:24;9.30;;;2.20;;
19942;SDS011;10133;50.956;17.276;2023-03-15T11:15:48;11.07;;;2.07;;
19942;SDS011;10133;50.956;17.276;2023-03-15T11:18:20;7.60;;;1.83;;
19942;SDS011;10133;50.956;17.276;2023-03-15T11:21:03;7.87;;;1.90;;
19942;SDS011;10133;50.956;17.276;2023-03-15T11:23:37;9.77;;;1.73;;
19942;SDS011;10133;50.956;17.276;2023-03-15T11:26:08;6.67;;;1.80;;
19942;SDS011;10133;50.956;17.276;2023-03-15T11:28:57;4.87;;;1.83;;
19942;SDS011;10133;50.956;17.276;2023-03-15T11:31:45;4.00;;;1.33;;
19942;SDS011;10133;50.956;17.276;2023-03-15T11:37:27;4.97;;;1.20;;
19942;SDS011;10133;50.956;17.276;2023-03-15T11:48:02;6.27;;;1.40;;
19942;SDS011;10133;50.956;17.276;2023-03-15T11:50:54;6.33;;;1.30;;
19942;SDS011;10133;50.956;17.276;2023-03-15T11:53:24;6.97;;;1.60;;
19942;SDS011;10133;50.956;17.276;2023-03-15T11:55:56;6.43;;;1.40;;
19942;SDS011;10133;50.956;17.276;2023-03-15T11:58:46;7.40;;;1.33;;
19942;SDS011;10133;50.956;17.276;2023-03-15T12:01:29;3.83;;;1.30;;
19942;SDS011;10133;50.956;17.276;2023-03-15T12:07:04;5.40;;;1.03;;
19942;SDS011;10133;50.956;17.276;2023-03-15T12:09:53;6.50;;;1.27;;
19942;SDS011;10133;50.956;17.276;2023-03-15T12:17:44;7.80;;;1.60;;
19942;SDS011;10133;50.956;17.276;2023-03-15T12:20:35;7.60;;;1.30;;
19942;SDS011;10133;50.956;17.276;2023-03-15T12:28:35;4.60;;;1.10;;
19942;SDS011;10133;50.956;17.276;2023-03-15T12:31:04;8.33;;;1.20;;
19942;SDS011;10133;50.956;17.276;2023-03-15T12:33:42;4.97;;;1.13;;
19942;SDS011;10133;50.956;17.276;2023-03-15T12:36:37;6.70;;;1.10;;
19942;SDS011;10133;50.956;17.276;2023-03-15T12:41:40;6.80;;;1.40;;
19942;SDS011;10133;50.956;17.276;2023-03-15T12:49:29;4.83;;;1.30;;
19942;SDS011;10133;50.956;17.276;2023-03-15T12:57:23;3.67;;;1.13;;
19942;SDS011;10133;50.956;17.276;2023-03-15T13:05:35;5.03;;;1.00;;
19942;SDS011;10133;50.956;17.276;2023-03-15T13:08:29;4.97;;;1.10;;
19942;SDS011;10133;50.956;17.276;2023-03-15T13:11:16;8.73;;;1.33;;
19942;SDS011;10133;50.956;17.276;2023-03-15T13:17:12;7.77;;;1.50;;
19942;SDS011;10133;50.956;17.276;2023-03-15T13:20:10;6.87;;;1.37;;
19942;SDS011;10133;50.956;17.276;2023-03-15T13:22:53;3.60;;;1.37;;
19942;SDS011;10133;50.956;17.276;2023-03-15T13:28:21;2.90;;;1.00;;
19942;SDS011;10133;50.956;17.276;2023-03-15T13:30:51;6.27;;;1.00;;
19942;SDS011;10133;50.956;17.276;2023-03-15T13:33:29;4.43;;;1.17;;
19942;SDS011;10133;50.956;17.276;2023-03-15T13:36:01;6.77;;;1.10;;
19942;SDS011;10133;50.956;17.276;2023-03-15T13:38:48;3.60;;;1.10;;
19942;SDS011;10133;50.956;17.276;2023-03-15T13:41:26;3.33;;;1.50;;
19942;SDS011;10133;50.956;17.276;2023-03-15T13:43:56;5.60;;;1.67;;
19942;SDS011;10133;50.956;17.276;2023-03-15T13:46:27;5.87;;;1.33;;
19942;SDS011;10133;50.956;17.276;2023-03-15T13:48:56;9.90;;;1.60;;
19942;SDS011;10133;50.956;17.276;2023-03-15T13:51:27;6.67;;;1.73;;
19942;SDS011;10133;50.956;17.276;2023-03-15T13:57:03;4.93;;;1.40;;
19942;SDS011;10133;50.956;17.276;2023-03-15T13:59:34;3.00;;;1.20;;
19942;SDS011;10133;50.956;17.276;2023-03-15T14:02:24;7.23;;;1.13;;
19942;SDS011;10133;50.956;17.276;2023-03-15T14:05:04;4.57;;;1.60;;
19942;SDS011;10133;50.956;17.276;2023-03-15T14:07:39;4.63;;;1.27;;
19942;SDS011;10133;50.956;17.276;2023-03-15T14:10:21;8.93;;;1.70;;
19942;SDS011;10133;50.956;17.276;2023-03-15T14:12:54;4.77;;;1.30;;
19942;SDS011;10133;50.956;17.276;2023-03-15T14:15:24;5.23;;;1.57;;
19942;SDS011;10133;50.956;17.276;2023-03-15T14:20:35;7.43;;;1.70;;
19942;SDS011;10133;50.956;17.276;2023-03-15T14:23:13;6.47;;;2.10;;
19942;SDS011;10133;50.956;17.276;2023-03-15T14:25:42;9.70;;;2.67;;
19942;SDS011;10133;50.956;17.276;2023-03-15T14:28:15;8.50;;;2.73;;
19942;SDS011;10133;50.956;17.276;2023-03-15T14:30:49;6.00;;;2.20;;
19942;SDS011;10133;50.956;17.276;2023-03-15T14:36:06;5.07;;;1.50;;
19942;SDS011;10133;50.956;17.276;2023-03-15T14:38:49;5.70;;;2.13;;
19942;SDS011;10133;50.956;17.276;2023-03-15T14:41:29;5.00;;;1.50;;
19942;SDS011;10133;50.956;17.276;2023-03-15T14:43:59;15.30;;;1.73;;
19942;SDS011;10133;50.956;17.276;2023-03-15T14:46:31;5.43;;;1.67;;
19942;SDS011;10133;50.956;17.276;2023-03-15T14:48:58;4.60;;;1.50;;
19942;SDS011;10133;50.956;17.276;2023-03-15T14:51:25;8.33;;;1.97;;
19942;SDS011;10133;50.956;17.276;2023-03-15T14:53:54;9.17;;;2.13;;
19942;SDS011;10133;50.956;17.276;2023-03-15T14:56:23;7.33;;;2.17;;
19942;SDS011;10133;50.956;17.276;2023-03-15T14:58:52;9.17;;;1.90;;
19942;SDS011;10133;50.956;17.276;2023-03-15T15:01:24;4.37;;;2.10;;
19942;SDS011;10133;50.956;17.276;2023-03-15T15:03:58;13.03;;;2.10;;
19942;SDS011;10133;50.956;17.276;2023-03-15T15:06:28;8.57;;;1.80;;
19942;SDS011;10133;50.956;17.276;2023-03-15T15:08:58;5.20;;;1.80;;
19942;SDS011;10133;50.956;17.276;2023-03-15T15:11:26;11.13;;;1.63;;
19942;SDS011;10133;50.956;17.276;2023-03-15T15:13:54;8.47;;;1.87;;
19942;SDS011;10133;50.956;17.276;2023-03-15T15:16:23;6.77;;;1.83;;
19942;SDS011;10133;50.956;17.276;2023-03-15T15:18:50;7.27;;;1.70;;
19942;SDS011;10133;50.956;17.276;2023-03-15T15:23:58;9.60;;;2.50;;
19942;SDS011;10133;50.956;17.276;2023-03-15T15:26:32;10.37;;;2.00;;
19942;SDS011;10133;50.956;17.276;2023-03-15T15:28:59;10.13;;;2.07;;
19942;SDS011;10133;50.956;17.276;2023-03-15T15:31:26;6.83;;;1.80;;
19942;SDS011;10133;50.956;17.276;2023-03-15T15:33:55;8.10;;;2.10;;
19942;SDS011;10133;50.956;17.276;2023-03-15T15:36:23;7.80;;;2.60;;
19942;SDS011;10133;50.956;17.276;2023-03-15T15:38:52;4.87;;;1.87;;
19942;SDS011;10133;50.956;17.276;2023-03-15T15:41:23;8.53;;;1.83;;
19942;SDS011;10133;50.956;17.276;2023-03-15T15:43:52;5.87;;;1.67;;
19942;SDS011;10133;50.956;17.276;2023-03-15T15:46:19;7.17;;;2.20;;
19942;SDS011;10133;50.956;17.276;2023-03-15T15:48:46;9.53;;;2.63;;
19942;SDS011;10133;50.956;17.276;2023-03-15T15:51:24;5.33;;;1.77;;
19942;SDS011;10133;50.956;17.276;2023-03-15T15:53:52;4.97;;;2.17;;
19942;SDS011;10133;50.956;17.276;2023-03-15T15:56:22;5.83;;;2.17;;
19942;SDS011;10133;50.956;17.276;2023-03-15T15:58:55;3.27;;;1.60;;
19942;SDS011;10133;50.956;17.276;2023-03-15T16:01:23;8.17;;;1.77;;
19942;SDS011;10133;50.956;17.276;2023-03-15T16:03:50;8.90;;;1.80;;
19942;SDS011;10133;50.956;17.276;2023-03-15T16:06:19;5.67;;;2.23;;
19942;SDS011;10133;50.956;17.276;2023-03-15T16:08:47;7.77;;;1.53;;
19942;SDS011;10133;50.956;17.276;2023-03-15T16:11:16;5.07;;;1.50;;
19942;SDS011;10133;50.956;17.276;2023-03-15T16:13:44;8.77;;;2.20;;
19942;SDS011;10133;50.956;17.276;2023-03-15T16:16:15;5.77;;;1.50;;
19942;SDS011;10133;50.956;17.276;2023-03-15T16:18:43;6.10;;;1.70;;
19942;SDS011;10133;50.956;17.276;2023-03-15T16:21:14;6.47;;;2.00;;
19942;SDS011;10133;50.956;17.276;2023-03-15T16:24:03;5.87;;;1.93;;
19942;SDS011;10133;50.956;17.276;2023-03-15T16:27:02;5.07;;;1.80;;
19942;SDS011;10133;50.956;17.276;2023-03-15T16:32:05;6.33;;;2.07;;
19942;SDS011;10133;50.956;17.276;2023-03-15T16:34:44;4.27;;;1.90;;
19942;SDS011;10133;50.956;17.276;2023-03-15T16:37:19;5.93;;;2.07;;